sensor_id;sensor_type;location;lat;lon;timestamp;P1;durP1;ratioP1;P2;durP2;ratioP2
11431;SDS011;5772;50.940;6.782;2023-01-28T00:01:03;28.67;;;27.10;;
11431;SDS011;5772;50.940;6.782;2023-01-28T00:03:29;26.30;;;24.97;;
11431;SDS011;5772;50.940;6.782;2023-01-28T00:06:00;25.77;;;24.33;;
11431;SDS011;5772;50.940;6.782;2023-01-28T00:08:26;22.73;;;21.53;;
11431;SDS011;5772;50.940;6.782;2023-01-28T00:10:51;24.03;;;22.83;;
11431;SDS011;5772;50.940;6.782;2023-01-28T00:13:18;25.47;;;24.27;;
11431;SDS011;5772;50.940;6.782;2023-01-28T00:15:43;25.33;;;24.13;;
11431;SDS011;5772;50.940;6.782;2023-01-28T00:18:09;25.17;;;23.80;;
11431;SDS011;5772;50.940;6.782;2023-01-28T00:20:34;24.73;;;23.43;;
11431;SDS011;5772;50.940;6.782;2023-01-28T00:22:59;24.13;;;22.90;;
11431;SDS011;5772;50.940;6.782;2023-01-28T00:25:25;26.80;;;25.50;;
11431;SDS011;5772;50.940;6.782;2023-01-28T00:27:50;29.77;;;28.17;;
11431;SDS011;5772;50.940;6.782;2023-01-28T00:30:17;30.67;;;28.83;;
11431;SDS011;5772;50.940;6.782;2023-01-28T00:32:43;32.03;;;30.43;;
11431;SDS011;5772;50.940;6.782;2023-01-28T00:35:08;35.17;;;33.00;;
11431;SDS011;5772;50.940;6.782;2023-01-28T00:37:33;34.37;;;32.70;;
11431;SDS011;5772;50.940;6.782;2023-01-28T00:39:59;33.97;;;32.17;;
11431;SDS011;5772;50.940;6.782;2023-01-28T00:42:24;34.87;;;32.97;;
11431;SDS011;5772;50.940;6.782;2023-01-28T00:44:49;31.80;;;30.10;;
11431;SDS011;5772;50.940;6.782;2023-01-28T00:47:16;30.97;;;29.27;;
11431;SDS011;5772;50.940;6.782;2023-01-28T00:49:42;30.73;;;29.23;;
11431;SDS011;5772;50.940;6.782;2023-01-28T00:52:07;32.10;;;30.37;;
11431;SDS011;5772;50.940;6.782;2023-01-28T00:54:32;33.23;;;31.53;;
11431;SDS011;5772;50.940;6.782;2023-01-28T00:56:58;33.53;;;31.73;;
11431;SDS011;5772;50.940;6.782;2023-01-28T00:59:23;31.77;;;30.17;;
11431;SDS011;5772;50.940;6.782;2023-01-28T01:01:48;30.60;;;28.90;;
11431;SDS011;5772;50.940;6.782;2023-01-28T01:04:15;33.37;;;31.67;;
11431;SDS011;5772;50.940;6.782;2023-01-28T01:06:41;35.43;;;33.73;;
11431;SDS011;5772;50.940;6.782;2023-01-28T01:09:07;34.17;;;32.33;;
11431;SDS011;5772;50.940;6.782;2023-01-28T01:11:35;34.33;;;32.63;;
11431;SDS011;5772;50.940;6.782;2023-01-28T01:14:00;36.70;;;34.90;;
11431;SDS011;5772;50.940;6.782;2023-01-28T01:16:26;36.20;;;34.20;;
11431;SDS011;5772;50.940;6.782;2023-01-28T01:18:54;37.83;;;36.00;;
11431;SDS011;5772;50.940;6.782;2023-01-28T01:21:22;36.60;;;34.80;;
11431;SDS011;5772;50.940;6.782;2023-01-28T01:23:49;33.97;;;32.20;;
11431;SDS011;5772;50.940;6.782;2023-01-28T01:26:15;34.70;;;33.10;;
11431;SDS011;5772;50.940;6.782;2023-01-28T01:28:40;34.33;;;32.57;;
11431;SDS011;5772;50.940;6.782;2023-01-28T01:31:06;34.90;;;33.20;;
11431;SDS011;5772;50.940;6.782;2023-01-28T01:33:34;35.63;;;33.83;;
11431;SDS011;5772;50.940;6.782;2023-01-28T01:36:00;34.17;;;32.47;;
11431;SDS011;5772;50.940;6.782;2023-01-28T01:38:27;32.57;;;30.93;;
11431;SDS011;5772;50.940;6.782;2023-01-28T01:40:54;35.63;;;33.80;;
11431;SDS011;5772;50.940;6.782;2023-01-28T01:43:21;33.07;;;31.37;;
11431;SDS011;5772;50.940;6.782;2023-01-28T01:45:47;33.90;;;31.97;;
11431;SDS011;5772;50.940;6.782;2023-01-28T01:48:16;31.77;;;29.83;;
11431;SDS011;5772;50.940;6.782;2023-01-28T01:50:46;32.17;;;30.40;;
11431;SDS011;5772;50.940;6.782;2023-01-28T01:53:15;30.63;;;28.90;;
11431;SDS011;5772;50.940;6.782;2023-01-28T01:55:43;32.97;;;31.00;;
11431;SDS011;5772;50.940;6.782;2023-01-28T01:58:12;32.60;;;31.00;;
11431;SDS011;5772;50.940;6.782;2023-01-28T02:00:39;30.77;;;29.07;;
11431;SDS011;5772;50.940;6.782;2023-01-28T02:03:06;31.17;;;29.43;;
11431;SDS011;5772;50.940;6.782;2023-01-28T02:05:31;32.37;;;30.80;;
11431;SDS011;5772;50.940;6.782;2023-01-28T02:07:57;31.43;;;29.80;;
11431;SDS011;5772;50.940;6.782;2023-01-28T02:10:23;33.10;;;31.30;;
11431;SDS011;5772;50.940;6.782;2023-01-28T02:12:50;32.57;;;30.70;;
11431;SDS011;5772;50.940;6.782;2023-01-28T02:15:18;32.50;;;30.70;;
11431;SDS011;5772;50.940;6.782;2023-01-28T02:17:45;33.20;;;31.30;;
11431;SDS011;5772;50.940;6.782;2023-01-28T02:20:11;32.23;;;30.50;;
11431;SDS011;5772;50.940;6.782;2023-01-28T02:25:33;33.00;;;30.90;;
11431;SDS011;5772;50.940;6.782;2023-01-28T02:28:10;32.33;;;30.60;;
11431;SDS011;5772;50.940;6.782;2023-01-28T02:30:38;31.90;;;30.30;;
11431;SDS011;5772;50.940;6.782;2023-01-28T02:33:07;32.57;;;30.77;;
11431;SDS011;5772;50.940;6.782;2023-01-28T02:35:36;34.97;;;32.97;;
11431;SDS011;5772;50.940;6.782;2023-01-28T02:38:06;34.77;;;32.77;;
11431;SDS011;5772;50.940;6.782;2023-01-28T02:40:33;34.90;;;33.00;;
11431;SDS011;5772;50.940;6.782;2023-01-28T02:43:01;35.60;;;33.50;;
11431;SDS011;5772;50.940;6.782;2023-01-28T02:45:30;36.73;;;34.63;;
11431;SDS011;5772;50.940;6.782;2023-01-28T02:47:57;36.80;;;34.53;;
11431;SDS011;5772;50.940;6.782;2023-01-28T02:50:22;34.90;;;33.00;;
11431;SDS011;5772;50.940;6.782;2023-01-28T02:52:55;38.40;;;36.27;;
11431;SDS011;5772;50.940;6.782;2023-01-28T02:55:25;36.00;;;33.93;;
11431;SDS011;5772;50.940;6.782;2023-01-28T02:57:57;37.90;;;35.90;;
11431;SDS011;5772;50.940;6.782;2023-01-28T03:00:26;39.10;;;36.80;;
11431;SDS011;5772;50.940;6.782;2023-01-28T03:02:57;39.20;;;36.97;;
11431;SDS011;5772;50.940;6.782;2023-01-28T03:05:27;38.33;;;36.23;;
11431;SDS011;5772;50.940;6.782;2023-01-28T03:07:56;36.07;;;34.17;;
11431;SDS011;5772;50.940;6.782;2023-01-28T03:10:22;36.00;;;33.97;;
11431;SDS011;5772;50.940;6.782;2023-01-28T03:12:50;36.20;;;34.30;;
11431;SDS011;5772;50.940;6.782;2023-01-28T03:15:18;33.60;;;31.60;;
11431;SDS011;5772;50.940;6.782;2023-01-28T03:17:47;33.60;;;31.73;;
11431;SDS011;5772;50.940;6.782;2023-01-28T03:20:14;33.60;;;31.80;;
11431;SDS011;5772;50.940;6.782;2023-01-28T03:22:40;33.73;;;31.63;;
11431;SDS011;5772;50.940;6.782;2023-01-28T03:25:07;34.27;;;32.47;;
11431;SDS011;5772;50.940;6.782;2023-01-28T03:27:34;33.53;;;31.90;;
11431;SDS011;5772;50.940;6.782;2023-01-28T03:30:04;34.03;;;32.30;;
11431;SDS011;5772;50.940;6.782;2023-01-28T03:32:33;35.70;;;33.90;;
11431;SDS011;5772;50.940;6.782;2023-01-28T03:35:01;33.90;;;32.10;;
11431;SDS011;5772;50.940;6.782;2023-01-28T03:37:26;35.40;;;33.50;;
11431;SDS011;5772;50.940;6.782;2023-01-28T03:39:51;34.10;;;32.43;;
11431;SDS011;5772;50.940;6.782;2023-01-28T03:42:17;35.37;;;33.57;;
11431;SDS011;5772;50.940;6.782;2023-01-28T03:44:42;34.17;;;32.33;;
11431;SDS011;5772;50.940;6.782;2023-01-28T03:47:07;34.57;;;32.47;;
11431;SDS011;5772;50.940;6.782;2023-01-28T03:49:33;33.03;;;31.37;;
11431;SDS011;5772;50.940;6.782;2023-01-28T03:52:00;33.93;;;32.13;;
11431;SDS011;5772;50.940;6.782;2023-01-28T03:54:25;33.30;;;31.60;;
11431;SDS011;5772;50.940;6.782;2023-01-28T03:56:50;32.50;;;30.57;;
11431;SDS011;5772;50.940;6.782;2023-01-28T03:59:16;34.07;;;32.47;;
11431;SDS011;5772;50.940;6.782;2023-01-28T04:01:41;32.37;;;30.67;;
11431;SDS011;5772;50.940;6.782;2023-01-28T04:04:06;33.07;;;31.37;;
11431;SDS011;5772;50.940;6.782;2023-01-28T04:06:32;32.73;;;31.10;;
11431;SDS011;5772;50.940;6.782;2023-01-28T04:08:59;31.03;;;29.50;;
11431;SDS011;5772;50.940;6.782;2023-01-28T04:11:24;30.57;;;28.97;;
11431;SDS011;5772;50.940;6.782;2023-01-28T04:13:49;31.57;;;29.83;;
11431;SDS011;5772;50.940;6.782;2023-01-28T04:16:15;33.13;;;31.33;;
11431;SDS011;5772;50.940;6.782;2023-01-28T04:18:41;32.27;;;30.43;;
11431;SDS011;5772;50.940;6.782;2023-01-28T04:21:06;32.33;;;30.53;;
11431;SDS011;5772;50.940;6.782;2023-01-28T04:23:32;32.33;;;30.47;;
11431;SDS011;5772;50.940;6.782;2023-01-28T04:25:59;32.80;;;31.10;;
11431;SDS011;5772;50.940;6.782;2023-01-28T04:28:24;31.83;;;30.07;;
11431;SDS011;5772;50.940;6.782;2023-01-28T04:30:50;31.77;;;30.07;;
11431;SDS011;5772;50.940;6.782;2023-01-28T04:33:16;31.70;;;30.00;;
11431;SDS011;5772;50.940;6.782;2023-01-28T04:35:41;32.73;;;30.77;;
11431;SDS011;5772;50.940;6.782;2023-01-28T04:38:06;31.53;;;29.93;;
11431;SDS011;5772;50.940;6.782;2023-01-28T04:40:32;33.83;;;32.03;;
11431;SDS011;5772;50.940;6.782;2023-01-28T04:42:58;32.50;;;30.70;;
11431;SDS011;5772;50.940;6.782;2023-01-28T04:45:24;32.27;;;30.37;;
11431;SDS011;5772;50.940;6.782;2023-01-28T04:47:50;31.83;;;30.07;;
11431;SDS011;5772;50.940;6.782;2023-01-28T04:50:15;33.27;;;31.27;;
11431;SDS011;5772;50.940;6.782;2023-01-28T04:52:41;32.87;;;31.27;;
11431;SDS011;5772;50.940;6.782;2023-01-28T04:55:07;32.70;;;30.83;;
11431;SDS011;5772;50.940;6.782;2023-01-28T04:57:32;33.57;;;31.47;;
11431;SDS011;5772;50.940;6.782;2023-01-28T04:59:59;33.17;;;31.43;;
11431;SDS011;5772;50.940;6.782;2023-01-28T05:02:25;33.30;;;31.17;;
11431;SDS011;5772;50.940;6.782;2023-01-28T05:04:50;34.50;;;32.57;;
11431;SDS011;5772;50.940;6.782;2023-01-28T05:07:15;33.37;;;31.23;;
11431;SDS011;5772;50.940;6.782;2023-01-28T05:09:41;32.90;;;30.90;;
11431;SDS011;5772;50.940;6.782;2023-01-28T05:12:06;33.33;;;31.13;;
11431;SDS011;5772;50.940;6.782;2023-01-28T05:14:31;32.27;;;30.47;;
11431;SDS011;5772;50.940;6.782;2023-01-28T05:16:58;32.80;;;30.90;;
11431;SDS011;5772;50.940;6.782;2023-01-28T05:19:26;33.60;;;31.60;;
11431;SDS011;5772;50.940;6.782;2023-01-28T05:21:51;33.43;;;31.27;;
11431;SDS011;5772;50.940;6.782;2023-01-28T05:24:16;35.73;;;33.50;;
11431;SDS011;5772;50.940;6.782;2023-01-28T05:26:42;35.70;;;33.40;;
11431;SDS011;5772;50.940;6.782;2023-01-28T05:29:07;32.30;;;30.30;;
11431;SDS011;5772;50.940;6.782;2023-01-28T05:31:33;32.67;;;30.63;;
11431;SDS011;5772;50.940;6.782;2023-01-28T05:33:59;34.17;;;31.97;;
11431;SDS011;5772;50.940;6.782;2023-01-28T05:36:25;34.97;;;32.67;;
11431;SDS011;5772;50.940;6.782;2023-01-28T05:38:51;35.40;;;33.13;;
11431;SDS011;5772;50.940;6.782;2023-01-28T05:41:16;37.27;;;34.37;;
11431;SDS011;5772;50.940;6.782;2023-01-28T05:43:42;35.33;;;32.83;;
11431;SDS011;5772;50.940;6.782;2023-01-28T05:46:07;33.90;;;31.63;;
11431;SDS011;5772;50.940;6.782;2023-01-28T05:48:33;36.77;;;34.00;;
11431;SDS011;5772;50.940;6.782;2023-01-28T05:50:59;34.43;;;31.90;;
11431;SDS011;5772;50.940;6.782;2023-01-28T05:53:25;36.27;;;33.40;;
11431;SDS011;5772;50.940;6.782;2023-01-28T05:55:51;35.07;;;32.37;;
11431;SDS011;5772;50.940;6.782;2023-01-28T05:58:17;36.93;;;34.37;;
11431;SDS011;5772;50.940;6.782;2023-01-28T06:00:43;36.80;;;34.00;;
11431;SDS011;5772;50.940;6.782;2023-01-28T06:03:08;36.87;;;34.27;;
11431;SDS011;5772;50.940;6.782;2023-01-28T06:05:33;36.37;;;33.87;;
11431;SDS011;5772;50.940;6.782;2023-01-28T06:08:00;38.00;;;35.30;;
11431;SDS011;5772;50.940;6.782;2023-01-28T06:10:26;36.60;;;34.17;;
11431;SDS011;5772;50.940;6.782;2023-01-28T06:12:51;37.47;;;34.70;;
11431;SDS011;5772;50.940;6.782;2023-01-28T06:15:16;40.23;;;37.43;;
11431;SDS011;5772;50.940;6.782;2023-01-28T06:17:42;38.33;;;35.77;;
11431;SDS011;5772;50.940;6.782;2023-01-28T06:20:08;38.23;;;35.50;;
11431;SDS011;5772;50.940;6.782;2023-01-28T06:22:34;39.27;;;36.37;;
11431;SDS011;5772;50.940;6.782;2023-01-28T06:25:01;36.63;;;33.97;;
11431;SDS011;5772;50.940;6.782;2023-01-28T06:27:26;37.07;;;34.30;;
11431;SDS011;5772;50.940;6.782;2023-01-28T06:29:52;38.77;;;35.67;;
11431;SDS011;5772;50.940;6.782;2023-01-28T06:32:17;37.90;;;35.23;;
11431;SDS011;5772;50.940;6.782;2023-01-28T06:34:43;38.20;;;35.50;;
11431;SDS011;5772;50.940;6.782;2023-01-28T06:37:08;36.20;;;34.00;;
11431;SDS011;5772;50.940;6.782;2023-01-28T06:39:36;36.90;;;34.30;;
11431;SDS011;5772;50.940;6.782;2023-01-28T06:42:03;38.13;;;35.30;;
11431;SDS011;5772;50.940;6.782;2023-01-28T06:44:29;38.00;;;35.57;;
11431;SDS011;5772;50.940;6.782;2023-01-28T06:46:54;35.60;;;33.00;;
11431;SDS011;5772;50.940;6.782;2023-01-28T06:49:19;38.83;;;36.20;;
11431;SDS011;5772;50.940;6.782;2023-01-28T06:51:45;37.97;;;35.33;;
11431;SDS011;5772;50.940;6.782;2023-01-28T06:54:10;37.33;;;34.63;;
11431;SDS011;5772;50.940;6.782;2023-01-28T06:56:35;36.97;;;34.40;;
11431;SDS011;5772;50.940;6.782;2023-01-28T06:59:02;36.83;;;34.50;;
11431;SDS011;5772;50.940;6.782;2023-01-28T07:01:28;37.60;;;35.23;;
11431;SDS011;5772;50.940;6.782;2023-01-28T07:03:53;35.23;;;32.83;;
11431;SDS011;5772;50.940;6.782;2023-01-28T07:06:18;36.50;;;33.80;;
11431;SDS011;5772;50.940;6.782;2023-01-28T07:08:44;36.00;;;33.70;;
11431;SDS011;5772;50.940;6.782;2023-01-28T07:11:09;35.40;;;33.10;;
11431;SDS011;5772;50.940;6.782;2023-01-28T07:13:34;37.03;;;34.50;;
11431;SDS011;5772;50.940;6.782;2023-01-28T07:16:01;37.27;;;34.90;;
11431;SDS011;5772;50.940;6.782;2023-01-28T07:18:26;37.67;;;35.17;;
11431;SDS011;5772;50.940;6.782;2023-01-28T07:20:52;38.30;;;35.87;;
11431;SDS011;5772;50.940;6.782;2023-01-28T07:23:17;35.37;;;33.23;;
11431;SDS011;5772;50.940;6.782;2023-01-28T07:25:42;35.87;;;33.40;;
11431;SDS011;5772;50.940;6.782;2023-01-28T07:28:08;34.30;;;32.00;;
11431;SDS011;5772;50.940;6.782;2023-01-28T07:30:33;35.17;;;32.83;;
11431;SDS011;5772;50.940;6.782;2023-01-28T07:33:00;37.50;;;34.90;;
11431;SDS011;5772;50.940;6.782;2023-01-28T07:35:25;34.93;;;32.77;;
11431;SDS011;5772;50.940;6.782;2023-01-28T07:37:51;36.03;;;33.60;;
11431;SDS011;5772;50.940;6.782;2023-01-28T07:40:17;35.87;;;33.50;;
11431;SDS011;5772;50.940;6.782;2023-01-28T07:42:42;35.00;;;32.93;;
11431;SDS011;5772;50.940;6.782;2023-01-28T07:45:08;36.53;;;34.17;;
11431;SDS011;5772;50.940;6.782;2023-01-28T07:47:34;35.20;;;33.10;;
11431;SDS011;5772;50.940;6.782;2023-01-28T07:50:00;35.50;;;33.17;;
11431;SDS011;5772;50.940;6.782;2023-01-28T07:52:26;35.30;;;33.10;;
11431;SDS011;5772;50.940;6.782;2023-01-28T07:54:54;35.10;;;32.93;;
11431;SDS011;5772;50.940;6.782;2023-01-28T07:57:19;36.23;;;33.83;;
11431;SDS011;5772;50.940;6.782;2023-01-28T07:59:45;37.60;;;35.03;;
11431;SDS011;5772;50.940;6.782;2023-01-28T08:02:10;36.50;;;34.03;;
11431;SDS011;5772;50.940;6.782;2023-01-28T08:04:35;35.30;;;33.10;;
11431;SDS011;5772;50.940;6.782;2023-01-28T08:07:02;35.63;;;33.33;;
11431;SDS011;5772;50.940;6.782;2023-01-28T08:09:28;36.67;;;34.07;;
11431;SDS011;5772;50.940;6.782;2023-01-28T08:11:53;36.87;;;34.37;;
11431;SDS011;5772;50.940;6.782;2023-01-28T08:14:18;36.43;;;33.93;;
11431;SDS011;5772;50.940;6.782;2023-01-28T08:16:44;35.03;;;32.60;;
11431;SDS011;5772;50.940;6.782;2023-01-28T08:19:09;35.80;;;33.40;;
11431;SDS011;5772;50.940;6.782;2023-01-28T08:21:34;39.90;;;37.20;;
11431;SDS011;5772;50.940;6.782;2023-01-28T08:24:01;35.87;;;33.33;;
11431;SDS011;5772;50.940;6.782;2023-01-28T08:26:26;36.23;;;33.83;;
11431;SDS011;5772;50.940;6.782;2023-01-28T08:28:52;33.73;;;31.23;;
11431;SDS011;5772;50.940;6.782;2023-01-28T08:31:17;34.83;;;32.30;;
11431;SDS011;5772;50.940;6.782;2023-01-28T08:33:42;36.00;;;33.50;;
11431;SDS011;5772;50.940;6.782;2023-01-28T08:36:08;35.97;;;33.47;;
11431;SDS011;5772;50.940;6.782;2023-01-28T08:38:34;36.73;;;33.93;;
11431;SDS011;5772;50.940;6.782;2023-01-28T08:41:01;37.83;;;35.10;;
11431;SDS011;5772;50.940;6.782;2023-01-28T08:43:26;36.13;;;33.60;;
11431;SDS011;5772;50.940;6.782;2023-01-28T08:45:51;38.73;;;36.00;;
11431;SDS011;5772;50.940;6.782;2023-01-28T08:48:19;35.43;;;32.93;;
11431;SDS011;5772;50.940;6.782;2023-01-28T08:50:44;44.53;;;40.40;;
11431;SDS011;5772;50.940;6.782;2023-01-28T08:53:14;37.00;;;34.47;;
11431;SDS011;5772;50.940;6.782;2023-01-28T08:55:40;38.43;;;35.73;;
11431;SDS011;5772;50.940;6.782;2023-01-28T08:58:09;36.80;;;34.07;;
11431;SDS011;5772;50.940;6.782;2023-01-28T09:00:36;37.47;;;35.07;;
11431;SDS011;5772;50.940;6.782;2023-01-28T09:03:01;36.57;;;34.20;;
11431;SDS011;5772;50.940;6.782;2023-01-28T09:05:27;36.13;;;33.87;;
11431;SDS011;5772;50.940;6.782;2023-01-28T09:07:52;36.90;;;34.57;;
11431;SDS011;5772;50.940;6.782;2023-01-28T09:10:18;38.53;;;35.90;;
11431;SDS011;5772;50.940;6.782;2023-01-28T09:12:43;39.80;;;37.37;;
11431;SDS011;5772;50.940;6.782;2023-01-28T09:15:10;40.23;;;37.50;;
11431;SDS011;5772;50.940;6.782;2023-01-28T09:17:36;40.93;;;38.27;;
11431;SDS011;5772;50.940;6.782;2023-01-28T09:20:01;38.73;;;36.50;;
11431;SDS011;5772;50.940;6.782;2023-01-28T09:22:27;40.17;;;37.67;;
11431;SDS011;5772;50.940;6.782;2023-01-28T09:24:52;39.43;;;37.00;;
11431;SDS011;5772;50.940;6.782;2023-01-28T09:27:21;40.67;;;37.97;;
11431;SDS011;5772;50.940;6.782;2023-01-28T09:29:46;38.87;;;36.47;;
11431;SDS011;5772;50.940;6.782;2023-01-28T09:32:13;40.33;;;37.63;;
11431;SDS011;5772;50.940;6.782;2023-01-28T09:34:39;40.33;;;37.63;;
11431;SDS011;5772;50.940;6.782;2023-01-28T09:37:05;40.13;;;37.50;;
11431;SDS011;5772;50.940;6.782;2023-01-28T09:39:30;39.23;;;36.70;;
11431;SDS011;5772;50.940;6.782;2023-01-28T09:41:59;37.53;;;34.97;;
11431;SDS011;5772;50.940;6.782;2023-01-28T09:44:34;39.70;;;37.27;;
11431;SDS011;5772;50.940;6.782;2023-01-28T09:47:07;39.27;;;36.53;;
11431;SDS011;5772;50.940;6.782;2023-01-28T09:49:48;39.47;;;36.67;;
11431;SDS011;5772;50.940;6.782;2023-01-28T09:52:16;37.10;;;34.40;;
11431;SDS011;5772;50.940;6.782;2023-01-28T09:54:44;41.03;;;38.20;;
11431;SDS011;5772;50.940;6.782;2023-01-28T09:57:12;38.07;;;35.43;;
11431;SDS011;5772;50.940;6.782;2023-01-28T09:59:44;37.37;;;35.07;;
11431;SDS011;5772;50.940;6.782;2023-01-28T10:02:22;39.50;;;36.90;;
11431;SDS011;5772;50.940;6.782;2023-01-28T10:04:56;36.53;;;34.13;;
11431;SDS011;5772;50.940;6.782;2023-01-28T10:07:26;36.13;;;33.63;;
11431;SDS011;5772;50.940;6.782;2023-01-28T10:09:58;34.93;;;32.63;;
11431;SDS011;5772;50.940;6.782;2023-01-28T10:12:32;36.90;;;34.40;;
11431;SDS011;5772;50.940;6.782;2023-01-28T10:15:22;38.23;;;35.63;;
11431;SDS011;5772;50.940;6.782;2023-01-28T10:17:53;34.27;;;31.47;;
11431;SDS011;5772;50.940;6.782;2023-01-28T10:20:23;35.10;;;32.80;;
11431;SDS011;5772;50.940;6.782;2023-01-28T10:22:51;37.53;;;34.87;;
11431;SDS011;5772;50.940;6.782;2023-01-28T10:25:20;38.57;;;36.07;;
11431;SDS011;5772;50.940;6.782;2023-01-28T10:27:46;35.07;;;32.87;;
11431;SDS011;5772;50.940;6.782;2023-01-28T10:30:16;36.97;;;34.37;;
11431;SDS011;5772;50.940;6.782;2023-01-28T10:32:45;32.30;;;30.00;;
11431;SDS011;5772;50.940;6.782;2023-01-28T10:35:15;34.73;;;32.33;;
11431;SDS011;5772;50.940;6.782;2023-01-28T10:37:41;34.40;;;32.03;;
11431;SDS011;5772;50.940;6.782;2023-01-28T10:40:11;33.70;;;31.50;;
11431;SDS011;5772;50.940;6.782;2023-01-28T10:42:38;33.93;;;31.43;;
11431;SDS011;5772;50.940;6.782;2023-01-28T10:45:06;32.83;;;30.83;;
11431;SDS011;5772;50.940;6.782;2023-01-28T10:47:34;32.77;;;30.57;;
11431;SDS011;5772;50.940;6.782;2023-01-28T10:50:03;33.77;;;31.37;;
11431;SDS011;5772;50.940;6.782;2023-01-28T10:52:29;34.13;;;31.47;;
11431;SDS011;5772;50.940;6.782;2023-01-28T10:54:59;32.60;;;30.20;;
11431;SDS011;5772;50.940;6.782;2023-01-28T10:57:25;33.03;;;30.70;;
11431;SDS011;5772;50.940;6.782;2023-01-28T10:59:51;34.47;;;32.27;;
11431;SDS011;5772;50.940;6.782;2023-01-28T11:02:21;33.60;;;31.30;;
11431;SDS011;5772;50.940;6.782;2023-01-28T11:04:59;33.03;;;30.73;;
11431;SDS011;5772;50.940;6.782;2023-01-28T11:07:25;32.93;;;30.80;;
11431;SDS011;5772;50.940;6.782;2023-01-28T11:09:50;34.57;;;32.37;;
11431;SDS011;5772;50.940;6.782;2023-01-28T11:12:19;32.37;;;30.13;;
11431;SDS011;5772;50.940;6.782;2023-01-28T11:14:48;31.30;;;28.87;;
11431;SDS011;5772;50.940;6.782;2023-01-28T11:17:15;30.63;;;28.43;;
11431;SDS011;5772;50.940;6.782;2023-01-28T11:19:42;30.33;;;28.23;;
11431;SDS011;5772;50.940;6.782;2023-01-28T11:22:13;30.50;;;28.33;;
11431;SDS011;5772;50.940;6.782;2023-01-28T11:24:47;30.43;;;27.90;;
11431;SDS011;5772;50.940;6.782;2023-01-28T11:27:14;30.60;;;28.33;;
11431;SDS011;5772;50.940;6.782;2023-01-28T11:29:42;30.07;;;27.80;;
11431;SDS011;5772;50.940;6.782;2023-01-28T11:32:15;29.83;;;27.70;;
11431;SDS011;5772;50.940;6.782;2023-01-28T11:34:47;31.93;;;29.63;;
11431;SDS011;5772;50.940;6.782;2023-01-28T11:37:14;30.43;;;28.23;;
11431;SDS011;5772;50.940;6.782;2023-01-28T11:39:39;28.60;;;26.50;;
11431;SDS011;5772;50.940;6.782;2023-01-28T11:42:10;29.17;;;26.97;;
11431;SDS011;5772;50.940;6.782;2023-01-28T11:44:37;30.03;;;27.73;;
11431;SDS011;5772;50.940;6.782;2023-01-28T11:47:17;31.93;;;29.73;;
11431;SDS011;5772;50.940;6.782;2023-01-28T11:49:50;32.10;;;29.80;;
11431;SDS011;5772;50.940;6.782;2023-01-28T11:52:24;32.10;;;29.90;;
11431;SDS011;5772;50.940;6.782;2023-01-28T11:54:56;32.50;;;30.23;;
11431;SDS011;5772;50.940;6.782;2023-01-28T11:57:28;30.67;;;28.53;;
11431;SDS011;5772;50.940;6.782;2023-01-28T12:00:03;30.57;;;28.53;;
11431;SDS011;5772;50.940;6.782;2023-01-28T12:02:50;34.23;;;31.73;;
11431;SDS011;5772;50.940;6.782;2023-01-28T12:08:08;32.77;;;30.43;;
11431;SDS011;5772;50.940;6.782;2023-01-28T12:10:37;32.30;;;30.20;;
11431;SDS011;5772;50.940;6.782;2023-01-28T12:13:10;30.70;;;28.70;;
11431;SDS011;5772;50.940;6.782;2023-01-28T12:15:54;30.80;;;28.67;;
11431;SDS011;5772;50.940;6.782;2023-01-28T12:18:34;30.07;;;28.10;;
11431;SDS011;5772;50.940;6.782;2023-01-28T12:21:06;30.40;;;28.40;;
11431;SDS011;5772;50.940;6.782;2023-01-28T12:23:42;32.40;;;30.20;;
11431;SDS011;5772;50.940;6.782;2023-01-28T12:26:15;31.33;;;29.30;;
11431;SDS011;5772;50.940;6.782;2023-01-28T12:28:48;30.50;;;28.30;;
11431;SDS011;5772;50.940;6.782;2023-01-28T12:31:32;31.93;;;29.73;;
11431;SDS011;5772;50.940;6.782;2023-01-28T12:34:10;30.93;;;28.73;;
11431;SDS011;5772;50.940;6.782;2023-01-28T12:36:49;35.20;;;32.83;;
11431;SDS011;5772;50.940;6.782;2023-01-28T12:39:22;31.33;;;29.03;;
11431;SDS011;5772;50.940;6.782;2023-01-28T12:41:54;30.40;;;28.40;;
11431;SDS011;5772;50.940;6.782;2023-01-28T12:44:28;31.27;;;28.80;;
11431;SDS011;5772;50.940;6.782;2023-01-28T12:46:56;30.10;;;28.07;;
11431;SDS011;5772;50.940;6.782;2023-01-28T12:49:26;29.77;;;27.77;;
11431;SDS011;5772;50.940;6.782;2023-01-28T12:51:57;29.87;;;27.93;;
11431;SDS011;5772;50.940;6.782;2023-01-28T12:54:28;30.53;;;28.73;;
11431;SDS011;5772;50.940;6.782;2023-01-28T12:56:55;30.40;;;28.43;;
11431;SDS011;5772;50.940;6.782;2023-01-28T12:59:21;28.03;;;26.27;;
11431;SDS011;5772;50.940;6.782;2023-01-28T13:01:53;29.73;;;27.40;;
11431;SDS011;5772;50.940;6.782;2023-01-28T13:04:30;28.03;;;26.10;;
11431;SDS011;5772;50.940;6.782;2023-01-28T13:06:59;29.33;;;27.30;;
11431;SDS011;5772;50.940;6.782;2023-01-28T13:09:26;29.63;;;27.73;;
11431;SDS011;5772;50.940;6.782;2023-01-28T13:11:55;28.87;;;26.90;;
11431;SDS011;5772;50.940;6.782;2023-01-28T13:14:22;29.73;;;27.63;;
11431;SDS011;5772;50.940;6.782;2023-01-28T13:16:49;28.47;;;26.50;;
11431;SDS011;5772;50.940;6.782;2023-01-28T13:19:22;30.60;;;28.27;;
11431;SDS011;5772;50.940;6.782;2023-01-28T13:21:50;31.53;;;29.37;;
11431;SDS011;5772;50.940;6.782;2023-01-28T13:24:19;31.87;;;29.77;;
11431;SDS011;5772;50.940;6.782;2023-01-28T13:26:48;32.20;;;29.90;;
11431;SDS011;5772;50.940;6.782;2023-01-28T13:29:17;30.70;;;28.60;;
11431;SDS011;5772;50.940;6.782;2023-01-28T13:31:44;33.43;;;31.10;;
11431;SDS011;5772;50.940;6.782;2023-01-28T13:34:24;32.30;;;30.37;;
11431;SDS011;5772;50.940;6.782;2023-01-28T13:36:52;32.53;;;30.33;;
11431;SDS011;5772;50.940;6.782;2023-01-28T13:39:19;30.87;;;28.77;;
11431;SDS011;5772;50.940;6.782;2023-01-28T13:41:46;29.53;;;27.73;;
11431;SDS011;5772;50.940;6.782;2023-01-28T13:44:19;27.27;;;25.27;;
11431;SDS011;5772;50.940;6.782;2023-01-28T13:46:46;27.23;;;25.43;;
11431;SDS011;5772;50.940;6.782;2023-01-28T13:49:12;27.57;;;25.80;;
11431;SDS011;5772;50.940;6.782;2023-01-28T13:51:39;29.63;;;27.67;;
11431;SDS011;5772;50.940;6.782;2023-01-28T13:54:13;27.33;;;25.40;;
11431;SDS011;5772;50.940;6.782;2023-01-28T13:56:40;26.20;;;24.57;;
11431;SDS011;5772;50.940;6.782;2023-01-28T13:59:17;26.43;;;24.60;;
11431;SDS011;5772;50.940;6.782;2023-01-28T14:01:56;26.20;;;24.37;;
11431;SDS011;5772;50.940;6.782;2023-01-28T14:04:41;25.07;;;23.37;;
11431;SDS011;5772;50.940;6.782;2023-01-28T14:07:17;25.43;;;23.63;;
11431;SDS011;5772;50.940;6.782;2023-01-28T14:09:54;25.90;;;24.17;;
11431;SDS011;5772;50.940;6.782;2023-01-28T14:12:34;28.60;;;26.53;;
11431;SDS011;5772;50.940;6.782;2023-01-28T14:15:13;28.60;;;26.50;;
11431;SDS011;5772;50.940;6.782;2023-01-28T14:17:47;28.87;;;26.93;;
11431;SDS011;5772;50.940;6.782;2023-01-28T14:20:16;29.90;;;27.67;;
11431;SDS011;5772;50.940;6.782;2023-01-28T14:22:44;30.70;;;28.40;;
11431;SDS011;5772;50.940;6.782;2023-01-28T14:25:13;29.47;;;27.60;;
11431;SDS011;5772;50.940;6.782;2023-01-28T14:27:41;30.30;;;28.30;;
11431;SDS011;5772;50.940;6.782;2023-01-28T14:30:15;29.73;;;27.73;;
11431;SDS011;5772;50.940;6.782;2023-01-28T14:32:44;27.40;;;25.50;;
11431;SDS011;5772;50.940;6.782;2023-01-28T14:35:11;25.90;;;23.97;;
11431;SDS011;5772;50.940;6.782;2023-01-28T14:37:41;26.77;;;24.67;;
11431;SDS011;5772;50.940;6.782;2023-01-28T14:40:07;25.40;;;23.70;;
11431;SDS011;5772;50.940;6.782;2023-01-28T14:42:39;24.47;;;23.07;;